sensor_id;sensor_type;location;lat;lon;timestamp;P1;durP1;ratioP1;P2;durP2;ratioP2
3629;SDS011;1831;53.626;10.012;2022-10-16T00:02:21;10.80;;;9.03;;
3629;SDS011;1831;53.626;10.012;2022-10-16T00:04:48;10.40;;;7.90;;
3629;SDS011;1831;53.626;10.012;2022-10-16T00:07:15;14.93;;;10.13;;
3629;SDS011;1831;53.626;10.012;2022-10-16T00:09:42;11.60;;;8.00;;
3629;SDS011;1831;53.626;10.012;2022-10-16T00:12:09;10.03;;;7.63;;
3629;SDS011;1831;53.626;10.012;2022-10-16T00:14:35;9.40;;;7.43;;
3629;SDS011;1831;53.626;10.012;2022-10-16T00:17:04;9.93;;;7.47;;
3629;SDS011;1831;53.626;10.012;2022-10-16T00:19:30;9.60;;;7.93;;
3629;SDS011;1831;53.626;10.012;2022-10-16T00:21:57;13.33;;;7.27;;
3629;SDS011;1831;53.626;10.012;2022-10-16T00:24:24;11.17;;;7.93;;
3629;SDS011;1831;53.626;10.012;2022-10-16T00:26:51;11.80;;;7.90;;
3629;SDS011;1831;53.626;10.012;2022-10-16T00:29:18;9.50;;;6.00;;
3629;SDS011;1831;53.626;10.012;2022-10-16T00:31:44;7.53;;;6.10;;
3629;SDS011;1831;53.626;10.012;2022-10-16T00:34:13;8.27;;;5.87;;
3629;SDS011;1831;53.626;10.012;2022-10-16T00:36:39;7.30;;;5.00;;
3629;SDS011;1831;53.626;10.012;2022-10-16T00:39:06;6.20;;;4.37;;
3629;SDS011;1831;53.626;10.012;2022-10-16T00:41:34;11.00;;;4.57;;
3629;SDS011;1831;53.626;10.012;2022-10-16T00:44:01;7.33;;;4.53;;
3629;SDS011;1831;53.626;10.012;2022-10-16T00:46:31;6.33;;;4.27;;
3629;SDS011;1831;53.626;10.012;2022-10-16T00:49:04;5.10;;;4.07;;
3629;SDS011;1831;53.626;10.012;2022-10-16T00:51:35;8.13;;;4.60;;
3629;SDS011;1831;53.626;10.012;2022-10-16T00:54:04;5.93;;;3.37;;
3629;SDS011;1831;53.626;10.012;2022-10-16T00:56:35;6.57;;;3.40;;
3629;SDS011;1831;53.626;10.012;2022-10-16T00:59:02;6.03;;;3.43;;
3629;SDS011;1831;53.626;10.012;2022-10-16T01:01:32;9.13;;;3.87;;
3629;SDS011;1831;53.626;10.012;2022-10-16T01:03:59;5.57;;;3.07;;
3629;SDS011;1831;53.626;10.012;2022-10-16T01:06:28;9.57;;;4.10;;
3629;SDS011;1831;53.626;10.012;2022-10-16T01:09:11;5.90;;;3.33;;
3629;SDS011;1831;53.626;10.012;2022-10-16T01:11:44;8.27;;;3.50;;
3629;SDS011;1831;53.626;10.012;2022-10-16T01:14:21;8.13;;;3.90;;
3629;SDS011;1831;53.626;10.012;2022-10-16T01:16:53;5.97;;;3.50;;
3629;SDS011;1831;53.626;10.012;2022-10-16T01:19:26;6.40;;;3.50;;
3629;SDS011;1831;53.626;10.012;2022-10-16T01:22:10;6.17;;;3.20;;
3629;SDS011;1831;53.626;10.012;2022-10-16T01:24:39;5.70;;;3.10;;
3629;SDS011;1831;53.626;10.012;2022-10-16T01:27:11;4.90;;;2.60;;
3629;SDS011;1831;53.626;10.012;2022-10-16T01:29:41;10.10;;;3.70;;
3629;SDS011;1831;53.626;10.012;2022-10-16T01:32:15;6.10;;;3.37;;
3629;SDS011;1831;53.626;10.012;2022-10-16T01:34:47;8.53;;;3.30;;
3629;SDS011;1831;53.626;10.012;2022-10-16T01:37:20;6.67;;;3.87;;
3629;SDS011;1831;53.626;10.012;2022-10-16T01:39:55;6.97;;;3.23;;
3629;SDS011;1831;53.626;10.012;2022-10-16T01:42:27;5.10;;;3.07;;
3629;SDS011;1831;53.626;10.012;2022-10-16T01:44:58;6.37;;;2.80;;
3629;SDS011;1831;53.626;10.012;2022-10-16T01:47:26;7.03;;;2.97;;
3629;SDS011;1831;53.626;10.012;2022-10-16T01:49:56;3.70;;;2.37;;
3629;SDS011;1831;53.626;10.012;2022-10-16T01:52:25;6.43;;;2.77;;
3629;SDS011;1831;53.626;10.012;2022-10-16T01:54:55;8.80;;;2.90;;
3629;SDS011;1831;53.626;10.012;2022-10-16T01:57:25;8.67;;;3.20;;
3629;SDS011;1831;53.626;10.012;2022-10-16T01:59:54;8.77;;;2.80;;
3629;SDS011;1831;53.626;10.012;2022-10-16T02:02:26;6.83;;;2.60;;
3629;SDS011;1831;53.626;10.012;2022-10-16T02:04:57;6.40;;;3.30;;
3629;SDS011;1831;53.626;10.012;2022-10-16T02:07:27;10.57;;;3.17;;
3629;SDS011;1831;53.626;10.012;2022-10-16T02:09:54;4.63;;;2.73;;
3629;SDS011;1831;53.626;10.012;2022-10-16T02:12:23;8.40;;;3.20;;
3629;SDS011;1831;53.626;10.012;2022-10-16T02:14:55;6.47;;;3.10;;
3629;SDS011;1831;53.626;10.012;2022-10-16T02:17:23;7.13;;;3.23;;
3629;SDS011;1831;53.626;10.012;2022-10-16T02:19:50;5.93;;;3.20;;
3629;SDS011;1831;53.626;10.012;2022-10-16T02:22:21;5.03;;;2.63;;
3629;SDS011;1831;53.626;10.012;2022-10-16T02:24:54;8.10;;;3.27;;
3629;SDS011;1831;53.626;10.012;2022-10-16T02:27:25;7.20;;;2.70;;
3629;SDS011;1831;53.626;10.012;2022-10-16T02:29:59;5.60;;;3.47;;
3629;SDS011;1831;53.626;10.012;2022-10-16T02:32:32;7.90;;;3.50;;
3629;SDS011;1831;53.626;10.012;2022-10-16T02:35:02;5.00;;;3.20;;
3629;SDS011;1831;53.626;10.012;2022-10-16T02:37:30;10.80;;;4.20;;
3629;SDS011;1831;53.626;10.012;2022-10-16T02:39:58;5.60;;;2.80;;
3629;SDS011;1831;53.626;10.012;2022-10-16T02:42:28;7.30;;;2.63;;
3629;SDS011;1831;53.626;10.012;2022-10-16T02:44:59;5.90;;;2.80;;
3629;SDS011;1831;53.626;10.012;2022-10-16T02:47:25;5.23;;;2.73;;
3629;SDS011;1831;53.626;10.012;2022-10-16T02:49:52;12.60;;;2.80;;
3629;SDS011;1831;53.626;10.012;2022-10-16T02:52:19;4.07;;;2.63;;
3629;SDS011;1831;53.626;10.012;2022-10-16T02:54:46;7.30;;;3.60;;
3629;SDS011;1831;53.626;10.012;2022-10-16T02:57:13;4.80;;;2.47;;
3629;SDS011;1831;53.626;10.012;2022-10-16T02:59:41;9.10;;;2.53;;
3629;SDS011;1831;53.626;10.012;2022-10-16T03:02:08;4.97;;;2.57;;
3629;SDS011;1831;53.626;10.012;2022-10-16T03:04:35;4.60;;;2.23;;
3629;SDS011;1831;53.626;10.012;2022-10-16T03:07:03;8.43;;;3.00;;
3629;SDS011;1831;53.626;10.012;2022-10-16T03:09:29;5.17;;;2.50;;
3629;SDS011;1831;53.626;10.012;2022-10-16T03:11:56;6.43;;;2.80;;
3629;SDS011;1831;53.626;10.012;2022-10-16T03:14:23;6.10;;;3.03;;
3629;SDS011;1831;53.626;10.012;2022-10-16T03:16:51;4.00;;;2.40;;
3629;SDS011;1831;53.626;10.012;2022-10-16T03:19:18;6.90;;;2.60;;
3629;SDS011;1831;53.626;10.012;2022-10-16T03:21:45;8.50;;;2.93;;
3629;SDS011;1831;53.626;10.012;2022-10-16T03:24:12;7.27;;;3.20;;
3629;SDS011;1831;53.626;10.012;2022-10-16T03:26:39;6.93;;;3.30;;
3629;SDS011;1831;53.626;10.012;2022-10-16T03:29:05;5.10;;;2.97;;
3629;SDS011;1831;53.626;10.012;2022-10-16T03:31:32;4.50;;;2.73;;
3629;SDS011;1831;53.626;10.012;2022-10-16T03:34:00;5.57;;;2.70;;
3629;SDS011;1831;53.626;10.012;2022-10-16T03:36:27;7.40;;;3.10;;
3629;SDS011;1831;53.626;10.012;2022-10-16T03:38:54;9.07;;;3.20;;
3629;SDS011;1831;53.626;10.012;2022-10-16T03:41:21;7.73;;;2.70;;
3629;SDS011;1831;53.626;10.012;2022-10-16T03:43:48;6.73;;;3.40;;
3629;SDS011;1831;53.626;10.012;2022-10-16T03:46:15;10.43;;;2.83;;
3629;SDS011;1831;53.626;10.012;2022-10-16T03:48:41;9.50;;;2.50;;
3629;SDS011;1831;53.626;10.012;2022-10-16T03:51:10;4.67;;;3.23;;
3629;SDS011;1831;53.626;10.012;2022-10-16T03:53:36;5.60;;;2.53;;
3629;SDS011;1831;53.626;10.012;2022-10-16T03:56:03;4.60;;;2.60;;
3629;SDS011;1831;53.626;10.012;2022-10-16T03:58:31;8.60;;;2.70;;
3629;SDS011;1831;53.626;10.012;2022-10-16T04:00:57;8.13;;;3.50;;
3629;SDS011;1831;53.626;10.012;2022-10-16T04:03:24;5.23;;;2.13;;
3629;SDS011;1831;53.626;10.012;2022-10-16T04:05:51;4.30;;;2.50;;
3629;SDS011;1831;53.626;10.012;2022-10-16T04:08:19;5.20;;;2.53;;
3629;SDS011;1831;53.626;10.012;2022-10-16T04:10:46;5.90;;;2.60;;
3629;SDS011;1831;53.626;10.012;2022-10-16T04:13:13;5.63;;;2.40;;
3629;SDS011;1831;53.626;10.012;2022-10-16T04:15:40;10.00;;;2.67;;
3629;SDS011;1831;53.626;10.012;2022-10-16T04:18:07;4.90;;;2.30;;
3629;SDS011;1831;53.626;10.012;2022-10-16T04:20:34;7.40;;;2.90;;
3629;SDS011;1831;53.626;10.012;2022-10-16T04:23:01;6.93;;;2.60;;
3629;SDS011;1831;53.626;10.012;2022-10-16T04:25:29;8.73;;;2.83;;
3629;SDS011;1831;53.626;10.012;2022-10-16T04:27:56;5.73;;;2.37;;
3629;SDS011;1831;53.626;10.012;2022-10-16T04:30:24;6.20;;;2.60;;
3629;SDS011;1831;53.626;10.012;2022-10-16T04:32:51;10.20;;;2.57;;
3629;SDS011;1831;53.626;10.012;2022-10-16T04:35:18;7.13;;;2.83;;
3629;SDS011;1831;53.626;10.012;2022-10-16T04:37:46;8.90;;;3.03;;
3629;SDS011;1831;53.626;10.012;2022-10-16T04:40:13;7.37;;;3.60;;
3629;SDS011;1831;53.626;10.012;2022-10-16T04:42:41;8.03;;;3.17;;
3629;SDS011;1831;53.626;10.012;2022-10-16T04:45:08;8.23;;;3.10;;
3629;SDS011;1831;53.626;10.012;2022-10-16T04:47:36;10.57;;;3.47;;
3629;SDS011;1831;53.626;10.012;2022-10-16T04:50:03;6.83;;;3.07;;
3629;SDS011;1831;53.626;10.012;2022-10-16T04:52:31;5.33;;;3.17;;
3629;SDS011;1831;53.626;10.012;2022-10-16T04:54:57;8.13;;;3.00;;
3629;SDS011;1831;53.626;10.012;2022-10-16T04:57:27;5.13;;;2.63;;
3629;SDS011;1831;53.626;10.012;2022-10-16T04:59:55;5.67;;;2.73;;
3629;SDS011;1831;53.626;10.012;2022-10-16T05:02:22;4.73;;;3.03;;
3629;SDS011;1831;53.626;10.012;2022-10-16T05:04:49;8.70;;;3.20;;
3629;SDS011;1831;53.626;10.012;2022-10-16T05:07:16;8.00;;;3.67;;
3629;SDS011;1831;53.626;10.012;2022-10-16T05:09:42;4.57;;;2.73;;
3629;SDS011;1831;53.626;10.012;2022-10-16T05:12:09;6.30;;;3.50;;
3629;SDS011;1831;53.626;10.012;2022-10-16T05:14:36;8.10;;;3.60;;
3629;SDS011;1831;53.626;10.012;2022-10-16T05:17:04;6.73;;;3.60;;
3629;SDS011;1831;53.626;10.012;2022-10-16T05:19:31;5.77;;;3.00;;
3629;SDS011;1831;53.626;10.012;2022-10-16T05:21:58;9.30;;;4.70;;
3629;SDS011;1831;53.626;10.012;2022-10-16T05:24:25;6.90;;;3.50;;
3629;SDS011;1831;53.626;10.012;2022-10-16T05:26:52;12.70;;;4.30;;
3629;SDS011;1831;53.626;10.012;2022-10-16T05:29:19;9.70;;;3.83;;
3629;SDS011;1831;53.626;10.012;2022-10-16T05:31:46;7.90;;;3.70;;
3629;SDS011;1831;53.626;10.012;2022-10-16T05:34:16;10.40;;;4.07;;
3629;SDS011;1831;53.626;10.012;2022-10-16T05:36:43;6.30;;;4.23;;
3629;SDS011;1831;53.626;10.012;2022-10-16T05:39:11;6.87;;;4.00;;
3629;SDS011;1831;53.626;10.012;2022-10-16T05:41:39;5.90;;;3.60;;
3629;SDS011;1831;53.626;10.012;2022-10-16T05:44:06;6.50;;;3.80;;
3629;SDS011;1831;53.626;10.012;2022-10-16T05:46:33;6.73;;;3.97;;
3629;SDS011;1831;53.626;10.012;2022-10-16T05:49:00;7.83;;;3.73;;
3629;SDS011;1831;53.626;10.012;2022-10-16T05:51:28;7.80;;;3.77;;
3629;SDS011;1831;53.626;10.012;2022-10-16T05:53:55;10.57;;;3.60;;
3629;SDS011;1831;53.626;10.012;2022-10-16T05:56:22;11.07;;;4.07;;
3629;SDS011;1831;53.626;10.012;2022-10-16T05:58:49;7.50;;;3.30;;
3629;SDS011;1831;53.626;10.012;2022-10-16T06:01:19;10.73;;;3.50;;
3629;SDS011;1831;53.626;10.012;2022-10-16T06:03:49;6.23;;;3.60;;
3629;SDS011;1831;53.626;10.012;2022-10-16T06:06:16;6.87;;;3.70;;
3629;SDS011;1831;53.626;10.012;2022-10-16T06:08:46;7.27;;;3.50;;
3629;SDS011;1831;53.626;10.012;2022-10-16T06:11:14;9.50;;;3.30;;
3629;SDS011;1831;53.626;10.012;2022-10-16T06:13:42;7.13;;;2.77;;
3629;SDS011;1831;53.626;10.012;2022-10-16T06:16:11;15.60;;;3.90;;
3629;SDS011;1831;53.626;10.012;2022-10-16T06:18:39;6.37;;;3.47;;
3629;SDS011;1831;53.626;10.012;2022-10-16T06:21:09;5.13;;;2.93;;
3629;SDS011;1831;53.626;10.012;2022-10-16T06:23:36;6.30;;;2.63;;
3629;SDS011;1831;53.626;10.012;2022-10-16T06:26:05;7.83;;;3.00;;
3629;SDS011;1831;53.626;10.012;2022-10-16T06:28:33;7.20;;;3.57;;
3629;SDS011;1831;53.626;10.012;2022-10-16T06:31:00;7.70;;;3.03;;
3629;SDS011;1831;53.626;10.012;2022-10-16T06:33:27;4.30;;;2.67;;
3629;SDS011;1831;53.626;10.012;2022-10-16T06:35:54;5.57;;;2.97;;
3629;SDS011;1831;53.626;10.012;2022-10-16T06:38:26;6.50;;;2.73;;
3629;SDS011;1831;53.626;10.012;2022-10-16T06:40:53;10.00;;;3.10;;
3629;SDS011;1831;53.626;10.012;2022-10-16T06:43:21;6.13;;;3.47;;
3629;SDS011;1831;53.626;10.012;2022-10-16T06:45:50;6.87;;;3.57;;
3629;SDS011;1831;53.626;10.012;2022-10-16T06:48:17;7.17;;;3.40;;
3629;SDS011;1831;53.626;10.012;2022-10-16T06:50:54;9.73;;;4.17;;
3629;SDS011;1831;53.626;10.012;2022-10-16T06:53:22;9.13;;;3.53;;
3629;SDS011;1831;53.626;10.012;2022-10-16T06:55:49;5.03;;;2.93;;
3629;SDS011;1831;53.626;10.012;2022-10-16T06:58:16;4.53;;;3.37;;
3629;SDS011;1831;53.626;10.012;2022-10-16T07:00:44;6.67;;;3.20;;
3629;SDS011;1831;53.626;10.012;2022-10-16T07:03:11;6.30;;;3.40;;
3629;SDS011;1831;53.626;10.012;2022-10-16T07:05:38;5.63;;;3.60;;
3629;SDS011;1831;53.626;10.012;2022-10-16T07:08:05;6.10;;;3.23;;
3629;SDS011;1831;53.626;10.012;2022-10-16T07:10:32;7.63;;;3.50;;
3629;SDS011;1831;53.626;10.012;2022-10-16T07:12:59;6.00;;;3.50;;
3629;SDS011;1831;53.626;10.012;2022-10-16T07:15:26;5.70;;;3.30;;
3629;SDS011;1831;53.626;10.012;2022-10-16T07:17:55;7.17;;;3.60;;
3629;SDS011;1831;53.626;10.012;2022-10-16T07:20:21;5.80;;;3.60;;
3629;SDS011;1831;53.626;10.012;2022-10-16T07:22:48;7.30;;;3.37;;
3629;SDS011;1831;53.626;10.012;2022-10-16T07:25:15;6.53;;;4.10;;
3629;SDS011;1831;53.626;10.012;2022-10-16T07:27:42;7.63;;;4.77;;
3629;SDS011;1831;53.626;10.012;2022-10-16T07:30:09;6.53;;;3.87;;
3629;SDS011;1831;53.626;10.012;2022-10-16T07:32:36;6.73;;;4.07;;
3629;SDS011;1831;53.626;10.012;2022-10-16T07:35:05;6.23;;;3.53;;
3629;SDS011;1831;53.626;10.012;2022-10-16T07:37:33;9.60;;;3.73;;
3629;SDS011;1831;53.626;10.012;2022-10-16T07:40:00;8.10;;;3.97;;
3629;SDS011;1831;53.626;10.012;2022-10-16T07:42:27;9.37;;;4.40;;
3629;SDS011;1831;53.626;10.012;2022-10-16T07:44:54;8.47;;;4.00;;
3629;SDS011;1831;53.626;10.012;2022-10-16T07:47:21;7.70;;;3.97;;
3629;SDS011;1831;53.626;10.012;2022-10-16T07:49:47;5.70;;;3.80;;
3629;SDS011;1831;53.626;10.012;2022-10-16T07:52:16;6.47;;;3.87;;
3629;SDS011;1831;53.626;10.012;2022-10-16T07:54:42;7.63;;;4.50;;
3629;SDS011;1831;53.626;10.012;2022-10-16T07:57:09;8.57;;;4.50;;
3629;SDS011;1831;53.626;10.012;2022-10-16T07:59:36;6.67;;;3.70;;
3629;SDS011;1831;53.626;10.012;2022-10-16T08:02:03;7.90;;;3.93;;
3629;SDS011;1831;53.626;10.012;2022-10-16T08:04:30;5.10;;;3.70;;
3629;SDS011;1831;53.626;10.012;2022-10-16T08:06:57;6.53;;;4.30;;
3629;SDS011;1831;53.626;10.012;2022-10-16T08:09:25;7.83;;;4.60;;
3629;SDS011;1831;53.626;10.012;2022-10-16T08:11:52;7.00;;;4.00;;
3629;SDS011;1831;53.626;10.012;2022-10-16T08:14:19;8.23;;;4.47;;
3629;SDS011;1831;53.626;10.012;2022-10-16T08:16:45;7.30;;;4.17;;
3629;SDS011;1831;53.626;10.012;2022-10-16T08:19:12;6.07;;;3.90;;
3629;SDS011;1831;53.626;10.012;2022-10-16T08:21:40;8.10;;;4.30;;
3629;SDS011;1831;53.626;10.012;2022-10-16T08:24:07;7.97;;;4.30;;
3629;SDS011;1831;53.626;10.012;2022-10-16T08:26:36;5.63;;;3.90;;
3629;SDS011;1831;53.626;10.012;2022-10-16T08:29:02;6.53;;;3.90;;
3629;SDS011;1831;53.626;10.012;2022-10-16T08:31:29;7.80;;;4.00;;
3629;SDS011;1831;53.626;10.012;2022-10-16T08:33:56;5.03;;;3.77;;
3629;SDS011;1831;53.626;10.012;2022-10-16T08:36:23;10.40;;;3.70;;
3629;SDS011;1831;53.626;10.012;2022-10-16T08:38:50;6.47;;;3.60;;
3629;SDS011;1831;53.626;10.012;2022-10-16T08:41:21;6.40;;;4.00;;
3629;SDS011;1831;53.626;10.012;2022-10-16T08:44:05;6.93;;;3.90;;
3629;SDS011;1831;53.626;10.012;2022-10-16T08:46:52;8.30;;;3.70;;
3629;SDS011;1831;53.626;10.012;2022-10-16T08:49:27;6.57;;;3.83;;
3629;SDS011;1831;53.626;10.012;2022-10-16T08:51:56;5.30;;;3.70;;
3629;SDS011;1831;53.626;10.012;2022-10-16T08:54:26;9.60;;;4.13;;
3629;SDS011;1831;53.626;10.012;2022-10-16T08:57:00;9.63;;;4.40;;
3629;SDS011;1831;53.626;10.012;2022-10-16T08:59:36;6.07;;;4.07;;
3629;SDS011;1831;53.626;10.012;2022-10-16T09:02:03;6.03;;;4.40;;
3629;SDS011;1831;53.626;10.012;2022-10-16T09:04:51;7.97;;;4.50;;
3629;SDS011;1831;53.626;10.012;2022-10-16T09:07:30;5.13;;;3.33;;
3629;SDS011;1831;53.626;10.012;2022-10-16T09:10:08;7.63;;;4.30;;
3629;SDS011;1831;53.626;10.012;2022-10-16T09:12:45;6.30;;;3.37;;
3629;SDS011;1831;53.626;10.012;2022-10-16T09:15:23;6.27;;;3.10;;
3629;SDS011;1831;53.626;10.012;2022-10-16T09:17:56;6.07;;;3.30;;
3629;SDS011;1831;53.626;10.012;2022-10-16T09:20:32;6.30;;;3.13;;
3629;SDS011;1831;53.626;10.012;2022-10-16T09:23:16;10.93;;;3.40;;
3629;SDS011;1831;53.626;10.012;2022-10-16T09:25:46;7.37;;;3.20;;
3629;SDS011;1831;53.626;10.012;2022-10-16T09:28:14;5.27;;;2.90;;
3629;SDS011;1831;53.626;10.012;2022-10-16T09:30:44;8.90;;;3.57;;
3629;SDS011;1831;53.626;10.012;2022-10-16T09:33:13;5.90;;;2.63;;
3629;SDS011;1831;53.626;10.012;2022-10-16T09:35:43;5.20;;;2.50;;
3629;SDS011;1831;53.626;10.012;2022-10-16T09:38:20;10.10;;;2.53;;
3629;SDS011;1831;53.626;10.012;2022-10-16T09:40:48;6.53;;;3.13;;
3629;SDS011;1831;53.626;10.012;2022-10-16T09:43:22;11.77;;;7.13;;
3629;SDS011;1831;53.626;10.012;2022-10-16T09:45:57;4.50;;;3.13;;
3629;SDS011;1831;53.626;10.012;2022-10-16T09:48:26;4.80;;;2.63;;
3629;SDS011;1831;53.626;10.012;2022-10-16T09:50:57;4.90;;;2.40;;
3629;SDS011;1831;53.626;10.012;2022-10-16T09:53:26;6.43;;;2.37;;
3629;SDS011;1831;53.626;10.012;2022-10-16T09:56:04;5.43;;;2.20;;
3629;SDS011;1831;53.626;10.012;2022-10-16T09:58:32;5.70;;;2.30;;
3629;SDS011;1831;53.626;10.012;2022-10-16T10:01:00;5.27;;;2.37;;
3629;SDS011;1831;53.626;10.012;2022-10-16T10:03:33;5.60;;;2.40;;
3629;SDS011;1831;53.626;10.012;2022-10-16T10:06:05;5.70;;;2.47;;
3629;SDS011;1831;53.626;10.012;2022-10-16T10:08:52;8.37;;;2.63;;
3629;SDS011;1831;53.626;10.012;2022-10-16T10:11:36;9.63;;;3.50;;
3629;SDS011;1831;53.626;10.012;2022-10-16T10:14:05;6.33;;;2.30;;
3629;SDS011;1831;53.626;10.012;2022-10-16T10:16:33;4.87;;;2.27;;
3629;SDS011;1831;53.626;10.012;2022-10-16T10:19:01;13.43;;;2.83;;
3629;SDS011;1831;53.626;10.012;2022-10-16T10:21:27;5.33;;;2.30;;
3629;SDS011;1831;53.626;10.012;2022-10-16T10:23:55;12.17;;;2.43;;
3629;SDS011;1831;53.626;10.012;2022-10-16T10:26:23;5.43;;;1.93;;
3629;SDS011;1831;53.626;10.012;2022-10-16T10:28:55;4.37;;;2.40;;
3629;SDS011;1831;53.626;10.012;2022-10-16T10:31:32;7.13;;;2.50;;
3629;SDS011;1831;53.626;10.012;2022-10-16T10:34:09;6.07;;;2.57;;
3629;SDS011;1831;53.626;10.012;2022-10-16T10:36:48;4.30;;;2.23;;
3629;SDS011;1831;53.626;10.012;2022-10-16T10:39:22;5.50;;;2.30;;
3629;SDS011;1831;53.626;10.012;2022-10-16T10:42:10;8.13;;;2.77;;
3629;SDS011;1831;53.626;10.012;2022-10-16T10:47:51;6.00;;;2.17;;
3629;SDS011;1831;53.626;10.012;2022-10-16T10:50:31;5.93;;;2.00;;
3629;SDS011;1831;53.626;10.012;2022-10-16T10:53:05;3.60;;;1.70;;
3629;SDS011;1831;53.626;10.012;2022-10-16T10:55:39;6.33;;;1.83;;
3629;SDS011;1831;53.626;10.012;2022-10-16T11:01:14;8.97;;;2.40;;
3629;SDS011;1831;53.626;10.012;2022-10-16T11:03:54;9.53;;;4.80;;
3629;SDS011;1831;53.626;10.012;2022-10-16T11:06:39;8.40;;;2.33;;
3629;SDS011;1831;53.626;10.012;2022-10-16T11:09:09;11.33;;;3.00;;
3629;SDS011;1831;53.626;10.012;2022-10-16T11:11:42;5.97;;;2.13;;
3629;SDS011;1831;53.626;10.012;2022-10-16T11:14:13;10.77;;;1.90;;
3629;SDS011;1831;53.626;10.012;2022-10-16T11:16:44;7.90;;;2.07;;
3629;SDS011;1831;53.626;10.012;2022-10-16T11:19:21;7.40;;;1.90;;
3629;SDS011;1831;53.626;10.012;2022-10-16T11:21:59;7.80;;;1.57;;
3629;SDS011;1831;53.626;10.012;2022-10-16T11:24:34;8.10;;;2.80;;
3629;SDS011;1831;53.626;10.012;2022-10-16T11:27:08;3.80;;;1.30;;
3629;SDS011;1831;53.626;10.012;2022-10-16T11:29:41;5.77;;;2.10;;
3629;SDS011;1831;53.626;10.012;2022-10-16T11:32:17;3.23;;;1.40;;
3629;SDS011;1831;53.626;10.012;2022-10-16T11:34:50;5.40;;;1.60;;
3629;SDS011;1831;53.626;10.012;2022-10-16T11:37:23;4.67;;;1.20;;
3629;SDS011;1831;53.626;10.012;2022-10-16T11:39:54;4.83;;;1.40;;
3629;SDS011;1831;53.626;10.012;2022-10-16T11:42:27;8.67;;;1.67;;
3629;SDS011;1831;53.626;10.012;2022-10-16T11:45:02;6.83;;;3.50;;
3629;SDS011;1831;53.626;10.012;2022-10-16T11:47:37;6.57;;;1.47;;
3629;SDS011;1831;53.626;10.012;2022-10-16T11:50:13;5.00;;;1.50;;
3629;SDS011;1831;53.626;10.012;2022-10-16T11:52:49;5.27;;;1.70;;
3629;SDS011;1831;53.626;10.012;2022-10-16T11:55:22;5.83;;;1.70;;
3629;SDS011;1831;53.626;10.012;2022-10-16T11:57:57;8.33;;;1.90;;
3629;SDS011;1831;53.626;10.012;2022-10-16T12:00:30;7.80;;;2.20;;
3629;SDS011;1831;53.626;10.012;2022-10-16T12:03:03;6.73;;;1.77;;
3629;SDS011;1831;53.626;10.012;2022-10-16T12:05:55;6.93;;;1.23;;
3629;SDS011;1831;53.626;10.012;2022-10-16T12:08:28;6.57;;;1.47;;
3629;SDS011;1831;53.626;10.012;2022-10-16T12:11:05;5.50;;;1.50;;
3629;SDS011;1831;53.626;10.012;2022-10-16T12:13:33;5.93;;;2.37;;
3629;SDS011;1831;53.626;10.012;2022-10-16T12:16:06;5.60;;;1.77;;
3629;SDS011;1831;53.626;10.012;2022-10-16T12:18:45;10.50;;;1.70;;
3629;SDS011;1831;53.626;10.012;2022-10-16T12:21:15;8.30;;;1.70;;
3629;SDS011;1831;53.626;10.012;2022-10-16T12:23:47;4.50;;;1.60;;
3629;SDS011;1831;53.626;10.012;2022-10-16T12:26:23;7.60;;;1.90;;
3629;SDS011;1831;53.626;10.012;2022-10-16T12:28:51;6.00;;;1.60;;
3629;SDS011;1831;53.626;10.012;2022-10-16T12:31:18;3.77;;;1.53;;
3629;SDS011;1831;53.626;10.012;2022-10-16T12:33:57;10.83;;;2.63;;
3629;SDS011;1831;53.626;10.012;2022-10-16T12:36:28;5.90;;;1.90;;
3629;SDS011;1831;53.626;10.012;2022-10-16T12:38:58;6.07;;;1.90;;
3629;SDS011;1831;53.626;10.012;2022-10-16T12:41:26;7.53;;;1.97;;
3629;SDS011;1831;53.626;10.012;2022-10-16T12:43:55;4.60;;;1.50;;
3629;SDS011;1831;53.626;10.012;2022-10-16T12:46:35;3.50;;;1.53;;
3629;SDS011;1831;53.626;10.012;2022-10-16T12:49:06;8.47;;;1.73;;
3629;SDS011;1831;53.626;10.012;2022-10-16T12:51:48;5.23;;;1.57;;
3629;SDS011;1831;53.626;10.012;2022-10-16T12:54:15;6.73;;;1.83;;
3629;SDS011;1831;53.626;10.012;2022-10-16T12:56:49;5.90;;;1.70;;
3629;SDS011;1831;53.626;10.012;2022-10-16T12:59:25;9.47;;;1.80;;
3629;SDS011;1831;53.626;10.012;2022-10-16T13:02:07;4.97;;;1.30;;
3629;SDS011;1831;53.626;10.012;2022-10-16T13:05:08;7.13;;;2.23;;
3629;SDS011;1831;53.626;10.012;2022-10-16T13:07:50;8.03;;;1.50;;
3629;SDS011;1831;53.626;10.012;2022-10-16T13:10:26;4.83;;;1.77;;
3629;SDS011;1831;53.626;10.012;2022-10-16T13:13:12;5.20;;;1.63;;
3629;SDS011;1831;53.626;10.012;2022-10-16T13:16:12;4.30;;;1.57;;
3629;SDS011;1831;53.626;10.012;2022-10-16T13:18:50;4.97;;;1.17;;
3629;SDS011;1831;53.626;10.012;2022-10-16T13:21:33;4.03;;;1.60;;
3629;SDS011;1831;53.626;10.012;2022-10-16T13:24:10;5.30;;;1.43;;
3629;SDS011;1831;53.626;10.012;2022-10-16T13:26:46;9.00;;;1.70;;
3629;SDS011;1831;53.626;10.012;2022-10-16T13:29:20;8.70;;;1.73;;
3629;SDS011;1831;53.626;10.012;2022-10-16T13:31:47;8.23;;;1.47;;
3629;SDS011;1831;53.626;10.012;2022-10-16T13:34:15;7.83;;;1.93;;
3629;SDS011;1831;53.626;10.012;2022-10-16T13:36:46;7.53;;;1.80;;
3629;SDS011;1831;53.626;10.012;2022-10-16T13:39:21;8.07;;;1.87;;
3629;SDS011;1831;53.626;10.012;2022-10-16T13:42:00;4.83;;;1.30;;
3629;SDS011;1831;53.626;10.012;2022-10-16T13:44:30;10.33;;;2.60;;
3629;SDS011;1831;53.626;10.012;2022-10-16T13:47:01;6.87;;;2.13;;
3629;SDS011;1831;53.626;10.012;2022-10-16T13:49:28;5.93;;;1.80;;
3629;SDS011;1831;53.626;10.012;2022-10-16T13:51:55;4.20;;;1.40;;
3629;SDS011;1831;53.626;10.012;2022-10-16T13:54:25;4.67;;;1.50;;
3629;SDS011;1831;53.626;10.012;2022-10-16T13:56:53;7.97;;;2.47;;
3629;SDS011;1831;53.626;10.012;2022-10-16T13:59:24;5.60;;;1.80;;
3629;SDS011;1831;53.626;10.012;2022-10-16T14:01:53;5.17;;;1.47;;
3629;SDS011;1831;53.626;10.012;2022-10-16T14:04:23;4.47;;;1.30;;
3629;SDS011;1831;53.626;10.012;2022-10-16T14:06:51;4.50;;;1.83;;
3629;SDS011;1831;53.626;10.012;2022-10-16T14:09:21;4.63;;;1.60;;
3629;SDS011;1831;53.626;10.012;2022-10-16T14:11:53;6.00;;;1.13;;
3629;SDS011;1831;53.626;10.012;2022-10-16T14:14:22;4.43;;;1.50;;
3629;SDS011;1831;53.626;10.012;2022-10-16T14:16:49;9.80;;;1.77;;
3629;SDS011;1831;53.626;10.012;2022-10-16T14:19:19;5.87;;;1.60;;
3629;SDS011;1831;53.626;10.012;2022-10-16T14:21:48;5.13;;;1.40;;
3629;SDS011;1831;53.626;10.012;2022-10-16T14:24:22;6.53;;;1.40;;
3629;SDS011;1831;53.626;10.012;2022-10-16T14:26:53;4.73;;;1.47;;
3629;SDS011;1831;53.626;10.012;2022-10-16T14:29:21;5.93;;;1.50;;
3629;SDS011;1831;53.626;10.012;2022-10-16T14:31:56;8.17;;;2.37;;
3629;SDS011;1831;53.626;10.012;2022-10-16T14:34:29;6.47;;;2.10;;
3629;SDS011;1831;53.626;10.012;2022-10-16T14:36:58;8.00;;;1.87;;
3629;SDS011;1831;53.626;10.012;2022-10-16T14:39:32;8.20;;;2.20;;
3629;SDS011;1831;53.626;10.012;2022-10-16T14:42:00;5.30;;;1.60;;
3629;SDS011;1831;53.626;10.012;2022-10-16T14:44:29;5.93;;;2.63;;
3629;SDS011;1831;53.626;10.012;2022-10-16T14:47:06;7.73;;;2.13;;
3629;SDS011;1831;53.626;10.012;2022-10-16T14:49:35;7.97;;;1.70;;
3629;SDS011;1831;53.626;10.012;2022-10-16T14:52:04;7.37;;;2.37;;
3629;SDS011;1831;53.626;10.012;2022-10-16T14:54:34;6.13;;;1.93;;
3629;SDS011;1831;53.626;10.012;2022-10-16T14:57:02;9.03;;;1.77;;
3629;SDS011;1831;53.626;10.012;2022-10-16T14:59:30;9.97;;;2.10;;
3629;SDS011;1831;53.626;10.012;2022-10-16T15:02:01;5.00;;;1.80;;
3629;SDS011;1831;53.626;10.012;2022-10-16T15:04:42;5.70;;;1.77;;
3629;SDS011;1831;53.626;10.012;2022-10-16T15:07:09;7.30;;;2.00;;
3629;SDS011;1831;53.626;10.012;2022-10-16T15:09:35;5.60;;;1.60;;
3629;SDS011;1831;53.626;10.012;2022-10-16T15:12:04;8.27;;;2.57;;
3629;SDS011;1831;53.626;10.012;2022-10-16T15:14:31;11.10;;;3.53;;
3629;SDS011;1831;53.626;10.012;2022-10-16T15:16:58;9.40;;;2.10;;
3629;SDS011;1831;53.626;10.012;2022-10-16T15:19:25;8.40;;;2.30;;
3629;SDS011;1831;53.626;10.012;2022-10-16T15:21:51;9.73;;;3.83;;
3629;SDS011;1831;53.626;10.012;2022-10-16T15:24:18;9.70;;;2.10;;
3629;SDS011;1831;53.626;10.012;2022-10-16T15:26:45;7.63;;;1.77;;